메인 페이지
METAR-TAF:

METAR-TAF

공항 :

애머릴로, 텍사스, 미국

위도: 35-13-12N, 경도: 101-43-02W, 고도: 1099m

현재 날씨관측

예보는 33분 전, 08:53시(UTC)에 발표되었습니다.
남남동16kt
온도 8°C
습도 87%
기압 1015 hPa
시정: 16.1km
맑음

METAR: KAMA 200853Z AUTO 16016KT 10SM CLR 08/06 A2997 RMK AO2 SLP125 T00780056 56005

시각: 04:26 (09:26 UTC)

예보

예보는 3 시간 51분 전, 05:35시(UTC)에 발표되었습니다.
예보 대상 시간: 20일 06시부터 21일 06시까지 (UTC)
남남동11kt
시정: 10km
고도 25000ft 상공 구름 조금
20일 1000시부터 (UTC)
11kt
시정: 8.0km
고도 600ft 상공 구름 많음
약한이슬비, 박무
20일 1600시부터 (UTC)
11kt
시정: 10km
고도 3500ft 상공 구름 보통
21일 0000시부터 (UTC)
남남동11kt
시정: 10km
고도 25000ft 상공 구름 조금

TAF: KAMA 200535Z 2006/2106 16011KT P6SM FEW250 FM201000 18011KT 5SM -DZ BR BKN006 FM201600 18011KT P6SM SCT035 FM210000 15011KT P6SM FEW250

4,000개 이상의 공항 관측 자료 및 예보 (METAR 및 TAF 보고).

지도상에서 검색 가능한 기상관측소가 노란 점과 빨간 점으로 표시되어 있습니다.

기상관측소 명을 보려면 표시 위로 마우스를 이동하세요.

날씨 관측과 예보를 보려면 클릭하세요.

지도 변경 : 확대하려면 엑스 표시가 있는 녹색 버튼, 축소하려면 빼기 표시가 있는 녹색 버튼, 다음 페이지의 지도를 보려면 녹색 화살표를 클릭하세요.


METAR-TAF: